createdAt,value
2023-03-29T00:00:01.532Z,53.92
2023-03-29T00:01:04.631Z,54.06
2023-03-29T00:02:08.901Z,53.92
2023-03-29T00:03:11.873Z,53.57
2023-03-29T00:04:15.140Z,53.51
2023-03-29T00:05:20.124Z,53.30
2023-03-29T00:06:23.404Z,52.98
2023-03-29T00:07:27.314Z,53.95
2023-03-29T00:08:35.512Z,54.38
2023-03-29T00:09:38.740Z,52.94
2023-03-29T00:10:41.584Z,52.97
2023-03-29T00:11:44.468Z,55.13
2023-03-29T00:12:47.339Z,54.66
2023-03-29T00:13:53.608Z,53.72
2023-03-29T00:14:56.587Z,53.70
2023-03-29T00:15:59.410Z,53.27
2023-03-29T00:17:02.286Z,53.55
2023-03-29T00:18:05.291Z,53.56
2023-03-29T00:19:08.123Z,53.47
2023-03-29T00:20:11.966Z,52.60
2023-03-29T00:21:14.827Z,53.81
2023-03-29T00:22:17.832Z,54.54
2023-03-29T00:23:20.635Z,53.74
2023-03-29T00:24:25.160Z,52.97
2023-03-29T00:25:28.210Z,52.24
2023-03-29T00:26:31.023Z,53.93
2023-03-29T00:27:34.643Z,53.75
2023-03-29T00:28:37.716Z,52.84
2023-03-29T00:29:40.561Z,52.96
2023-03-29T00:30:43.460Z,53.90
2023-03-29T00:31:52.696Z,53.51
2023-03-29T00:32:55.719Z,52.87
2023-03-29T00:33:58.998Z,52.56
2023-03-29T00:35:06.629Z,54.43
2023-03-29T00:36:11.492Z,54.09
2023-03-29T00:37:16.071Z,53.83
2023-03-29T00:38:19.151Z,53.18
2023-03-29T00:39:22.426Z,54.25
2023-03-29T00:40:25.304Z,54.32
2023-03-29T00:41:28.476Z,55.16
2023-03-29T00:42:31.332Z,55.00
2023-03-29T00:44:02.549Z,54.45
2023-03-29T00:45:11.557Z,55.79
2023-03-29T00:46:14.773Z,56.09
2023-03-29T00:47:19.481Z,54.37
2023-03-29T00:48:28.341Z,54.10
2023-03-29T00:49:31.221Z,56.55
2023-03-29T00:50:40.615Z,54.74
2023-03-29T00:51:43.901Z,56.38
2023-03-29T00:52:52.724Z,56.33
2023-03-29T00:53:59.405Z,56.37
2023-03-29T00:55:07.289Z,54.55
2023-03-29T00:56:25.580Z,56.60
2023-03-29T00:57:31.347Z,55.08
2023-03-29T00:58:49.370Z,54.38
2023-03-29T00:59:53.212Z,54.66
2023-03-29T01:01:03.535Z,54.72
2023-03-29T01:02:08.621Z,54.79
2023-03-29T01:03:15.526Z,56.05
2023-03-29T01:04:30.867Z,56.98
2023-03-29T01:05:40.568Z,54.54
2023-03-29T01:06:44.664Z,53.60
2023-03-29T01:07:59.262Z,53.64
2023-03-29T01:09:09.246Z,54.04
2023-03-29T01:10:20.402Z,56.60
2023-03-29T01:11:30.412Z,56.11
2023-03-29T01:12:39.110Z,57.21
2023-03-29T01:13:57.282Z,57.77
2023-03-29T01:15:07.447Z,57.90
2023-03-29T01:16:12.936Z,57.95
2023-03-29T01:17:17.291Z,58.20
2023-03-29T01:18:23.274Z,58.45
2023-03-29T01:19:30.760Z,58.23
2023-03-29T01:21:07.850Z,58.28
2023-03-29T01:22:42.332Z,56.67
2023-03-29T01:24:08.127Z,57.15
2023-03-29T01:25:31.860Z,57.91
2023-03-29T01:26:48.941Z,58.05
2023-03-29T01:28:05.287Z,57.54
2023-03-29T01:29:08.122Z,57.23
2023-03-29T01:30:17.379Z,56.95
2023-03-29T01:31:28.260Z,58.20
2023-03-29T01:32:49.209Z,57.78
2023-03-29T01:34:01.019Z,57.63
2023-03-29T01:35:18.293Z,58.35
2023-03-29T01:36:28.498Z,58.87
2023-03-29T01:37:38.841Z,58.38
2023-03-29T01:38:50.942Z,58.49
2023-03-29T01:39:54.373Z,58.17
2023-03-29T01:40:57.429Z,58.40
2023-03-29T01:42:08.906Z,57.96
2023-03-29T01:43:18.829Z,57.37
2023-03-29T01:44:34.763Z,56.75
2023-03-29T01:45:52.304Z,56.62
2023-03-29T01:47:06.042Z,57.51
2023-03-29T01:48:16.013Z,58.24
2023-03-29T01:49:30.105Z,57.83
2023-03-29T01:50:35.828Z,57.96
2023-03-29T01:51:43.750Z,57.37
2023-03-29T01:53:05.286Z,57.72
2023-03-29T01:54:16.245Z,58.15
2023-03-29T01:55:27.647Z,58.36
2023-03-29T01:56:32.312Z,58.15
2023-03-29T01:57:37.107Z,58.00
2023-03-29T01:58:46.420Z,57.10
2023-03-29T01:59:50.747Z,56.78
2023-03-29T02:00:56.552Z,57.10
2023-03-29T02:02:02.337Z,57.85
2023-03-29T02:03:09.835Z,57.19
2023-03-29T02:04:15.483Z,57.44
2023-03-29T02:05:19.142Z,56.78
2023-03-29T02:06:25.160Z,58.02
2023-03-29T02:07:31.958Z,58.23
2023-03-29T02:08:35.017Z,58.18
2023-03-29T02:09:39.942Z,57.94
2023-03-29T02:10:43.494Z,58.40
2023-03-29T02:11:46.936Z,58.78
2023-03-29T02:12:50.235Z,58.67
2023-03-29T02:13:53.103Z,58.31
2023-03-29T02:14:57.825Z,58.34
2023-03-29T02:16:04.482Z,58.30
2023-03-29T02:17:19.550Z,58.63
2023-03-29T02:18:22.568Z,58.81
2023-03-29T02:19:27.208Z,59.07
2023-03-29T02:20:43.519Z,59.41
2023-03-29T02:21:53.053Z,59.75
2023-03-29T02:23:03.600Z,59.73
2023-03-29T02:24:10.073Z,60.23
2023-03-29T02:25:14.180Z,59.91
2023-03-29T02:26:18.879Z,59.23
2023-03-29T02:27:21.932Z,59.25
2023-03-29T02:28:26.468Z,58.50
2023-03-29T02:29:29.398Z,59.03
2023-03-29T02:30:47.825Z,57.77
2023-03-29T02:32:06.390Z,58.72
2023-03-29T02:33:18.729Z,59.94
2023-03-29T02:34:48.938Z,59.79
2023-03-29T02:36:04.416Z,58.09
2023-03-29T02:37:13.770Z,57.41
2023-03-29T02:38:18.701Z,57.43
2023-03-29T02:39:23.153Z,58.06
2023-03-29T02:40:27.326Z,59.57
2023-03-29T02:41:30.420Z,59.00
2023-03-29T02:42:33.328Z,59.50
2023-03-29T02:43:37.949Z,60.22
2023-03-29T02:44:43.218Z,60.87
2023-03-29T02:45:47.724Z,60.81
2023-03-29T02:46:59.975Z,60.21
2023-03-29T02:48:10.269Z,60.24
2023-03-29T02:49:13.803Z,60.71
2023-03-29T02:50:17.069Z,60.61
2023-03-29T02:51:23.743Z,60.64
2023-03-29T02:52:34.691Z,60.83
2023-03-29T02:53:53.311Z,59.94
2023-03-29T02:54:57.216Z,58.42
2023-03-29T02:56:03.425Z,58.19
2023-03-29T02:57:10.093Z,57.83
2023-03-29T02:58:14.702Z,58.07
2023-03-29T02:59:20.681Z,60.27
2023-03-29T03:00:24.453Z,60.07
2023-03-29T03:01:27.446Z,59.51
2023-03-29T03:02:30.963Z,60.39
2023-03-29T03:03:34.210Z,60.85
2023-03-29T03:04:37.294Z,60.04
2023-03-29T03:05:40.243Z,60.76
2023-03-29T03:06:43.118Z,60.77
2023-03-29T03:07:47.415Z,60.05
2023-03-29T03:08:50.234Z,60.44
2023-03-29T03:09:53.242Z,61.00
2023-03-29T03:10:56.388Z,60.13
2023-03-29T03:11:59.245Z,61.08
2023-03-29T03:13:02.552Z,60.64
2023-03-29T03:14:08.438Z,60.98
2023-03-29T03:15:11.865Z,59.99
2023-03-29T03:16:14.748Z,59.09
2023-03-29T03:17:19.986Z,61.16
2023-03-29T03:18:23.396Z,61.11
2023-03-29T03:19:26.237Z,60.31
2023-03-29T03:20:29.240Z,59.49
2023-03-29T03:21:32.391Z,59.63
2023-03-29T03:22:36.290Z,61.51
2023-03-29T03:23:39.070Z,60.97
2023-03-29T03:24:41.846Z,60.75
2023-03-29T03:25:46.243Z,60.47
2023-03-29T03:26:49.146Z,59.95
2023-03-29T03:27:52.479Z,61.04
2023-03-29T03:28:56.092Z,60.48
2023-03-29T03:29:58.952Z,60.18
2023-03-29T03:31:04.499Z,61.63
2023-03-29T03:32:07.816Z,60.46
2023-03-29T03:33:10.902Z,59.14
2023-03-29T03:34:14.293Z,58.69
2023-03-29T03:35:17.642Z,59.26
2023-03-29T03:36:20.456Z,59.73
2023-03-29T03:37:23.801Z,60.00
2023-03-29T03:38:26.677Z,59.72
2023-03-29T03:39:29.547Z,61.41
2023-03-29T03:40:33.521Z,61.24
2023-03-29T03:41:37.010Z,60.68
2023-03-29T03:42:41.253Z,61.71
2023-03-29T03:43:47.575Z,62.06
2023-03-29T03:44:51.047Z,60.70
2023-03-29T03:45:54.017Z,60.74
2023-03-29T03:46:57.016Z,62.22
2023-03-29T03:47:59.872Z,62.14
2023-03-29T03:49:02.746Z,61.72
2023-03-29T03:50:07.382Z,62.24
2023-03-29T03:51:10.748Z,62.38
2023-03-29T03:52:13.954Z,62.38
2023-03-29T03:53:17.361Z,61.85
2023-03-29T03:54:20.233Z,60.54
2023-03-29T03:55:23.386Z,60.53
2023-03-29T03:56:27.106Z,61.27
2023-03-29T03:57:30.313Z,61.64
2023-03-29T03:58:33.711Z,61.97
2023-03-29T03:59:36.537Z,61.61
2023-03-29T04:00:39.363Z,61.39
2023-03-29T04:01:45.042Z,62.12
2023-03-29T04:02:49.458Z,62.07
2023-03-29T04:03:52.535Z,61.78
2023-03-29T04:04:56.085Z,61.45
2023-03-29T04:06:02.106Z,61.70
2023-03-29T04:07:05.044Z,62.64
2023-03-29T04:08:08.633Z,63.35
2023-03-29T04:09:11.589Z,63.19
2023-03-29T04:10:14.844Z,62.84
2023-03-29T04:11:17.662Z,62.77
2023-03-29T04:12:20.475Z,63.49
2023-03-29T04:13:23.810Z,63.37
2023-03-29T04:14:27.750Z,63.70
2023-03-29T04:15:31.122Z,63.81
2023-03-29T04:16:34.035Z,64.24
2023-03-29T04:17:37.149Z,64.07
2023-03-29T04:18:40.376Z,64.07
2023-03-29T04:19:43.246Z,63.69
2023-03-29T04:20:46.156Z,63.98
2023-03-29T04:21:50.698Z,64.06
2023-03-29T04:22:54.026Z,63.95
2023-03-29T04:23:56.881Z,63.87
2023-03-29T04:24:59.713Z,64.33
2023-03-29T04:26:02.667Z,64.79
2023-03-29T04:27:05.502Z,64.67
2023-03-29T04:28:08.958Z,64.61
2023-03-29T04:29:12.274Z,64.61
2023-03-29T04:30:15.720Z,64.53
2023-03-29T04:31:18.676Z,64.60
2023-03-29T04:32:21.661Z,64.63
2023-03-29T04:33:24.631Z,64.46
2023-03-29T04:34:27.644Z,64.59
2023-03-29T04:35:31.212Z,64.60
2023-03-29T04:36:34.214Z,64.67
2023-03-29T04:37:38.512Z,64.80
2023-03-29T04:38:47.673Z,64.78
2023-03-29T04:39:51.838Z,64.42
2023-03-29T04:40:56.573Z,65.53
2023-03-29T04:41:59.496Z,65.20
2023-03-29T04:43:03.624Z,64.60
2023-03-29T04:44:08.086Z,64.52
2023-03-29T04:45:12.829Z,64.13
2023-03-29T04:46:16.688Z,63.63
2023-03-29T04:47:19.632Z,64.06
2023-03-29T04:48:23.619Z,64.14
2023-03-29T04:49:26.435Z,64.07
2023-03-29T04:50:29.872Z,63.81
2023-03-29T04:51:33.096Z,63.47
2023-03-29T04:52:36.766Z,64.30
2023-03-29T04:53:40.866Z,64.32
2023-03-29T04:54:43.683Z,64.21
2023-03-29T04:55:48.298Z,64.12
2023-03-29T04:56:53.419Z,64.71
2023-03-29T04:57:56.812Z,64.13
2023-03-29T04:58:59.624Z,64.18
2023-03-29T05:00:02.557Z,64.35
2023-03-29T05:01:05.526Z,64.65
2023-03-29T05:02:08.560Z,64.70
2023-03-29T05:03:14.778Z,64.62
2023-03-29T05:04:19.666Z,64.23
2023-03-29T05:05:22.602Z,63.71
2023-03-29T05:06:25.436Z,64.80
2023-03-29T05:07:28.391Z,64.26
2023-03-29T05:08:31.218Z,64.27
2023-03-29T05:09:35.496Z,64.28
2023-03-29T05:10:38.711Z,64.47
2023-03-29T05:11:41.552Z,64.95
2023-03-29T05:12:44.529Z,64.61
2023-03-29T05:13:47.396Z,64.17
2023-03-29T05:14:50.221Z,64.07
2023-03-29T05:15:53.307Z,63.88
2023-03-29T05:16:56.121Z,63.72
2023-03-29T05:18:00.280Z,63.41
2023-03-29T05:19:03.307Z,64.59
2023-03-29T05:20:11.462Z,64.63
2023-03-29T05:21:14.532Z,64.66
2023-03-29T05:22:17.925Z,64.59
2023-03-29T05:23:21.583Z,64.56
2023-03-29T05:24:24.582Z,64.00
2023-03-29T05:25:27.673Z,64.11
2023-03-29T05:26:30.860Z,64.63
2023-03-29T05:27:34.710Z,64.36
2023-03-29T05:28:37.754Z,64.08
2023-03-29T05:29:40.663Z,64.99
2023-03-29T05:30:43.978Z,66.07
2023-03-29T05:31:49.411Z,65.77
2023-03-29T05:32:52.303Z,64.99
2023-03-29T05:33:55.165Z,64.19
2023-03-29T05:34:58.221Z,63.90
2023-03-29T05:36:09.179Z,64.33
2023-03-29T05:37:12.238Z,64.36
2023-03-29T05:38:15.178Z,64.19
2023-03-29T05:39:18.009Z,64.29
2023-03-29T05:40:20.933Z,64.27
2023-03-29T05:41:25.219Z,64.13
2023-03-29T05:42:28.836Z,65.80
2023-03-29T05:43:32.222Z,65.32
2023-03-29T05:44:35.628Z,65.76
2023-03-29T05:45:38.496Z,65.20
2023-03-29T05:46:41.290Z,65.41
2023-03-29T05:47:44.257Z,65.40
2023-03-29T05:48:47.335Z,65.37
2023-03-29T05:49:50.172Z,65.27
2023-03-29T05:50:55.148Z,64.97
2023-03-29T05:52:00.818Z,64.44
2023-03-29T05:53:03.665Z,63.91
2023-03-29T05:54:06.691Z,64.40
2023-03-29T05:55:10.148Z,64.44
2023-03-29T05:56:17.210Z,63.81
2023-03-29T05:57:20.355Z,63.67
2023-03-29T05:58:23.626Z,63.60
2023-03-29T05:59:29.501Z,63.48
2023-03-29T06:00:33.554Z,63.54
2023-03-29T06:01:37.158Z,63.40
2023-03-29T06:02:40.066Z,63.15
2023-03-29T06:03:43.478Z,62.98
2023-03-29T06:04:46.651Z,62.85
2023-03-29T06:05:51.065Z,62.84
2023-03-29T06:06:56.608Z,63.29
2023-03-29T06:08:00.152Z,63.30
2023-03-29T06:09:03.584Z,63.16
2023-03-29T06:10:07.672Z,63.32
2023-03-29T06:11:12.907Z,63.80
2023-03-29T06:12:15.805Z,63.65
2023-03-29T06:13:18.827Z,63.01
2023-03-29T06:14:21.762Z,63.44
2023-03-29T06:15:25.429Z,63.02
2023-03-29T06:16:28.376Z,63.11
2023-03-29T06:17:31.917Z,63.01
2023-03-29T06:18:34.960Z,62.50
2023-03-29T06:19:37.905Z,62.77
2023-03-29T06:20:40.903Z,63.42
2023-03-29T06:21:43.739Z,63.84
2023-03-29T06:22:49.159Z,64.19
2023-03-29T06:23:52.400Z,63.94
2023-03-29T06:24:55.892Z,64.12
2023-03-29T06:25:59.273Z,63.43
2023-03-29T06:27:02.468Z,62.63
2023-03-29T06:28:05.333Z,62.95
2023-03-29T06:29:08.259Z,62.87
2023-03-29T06:30:11.546Z,62.25
2023-03-29T06:31:14.491Z,60.83
2023-03-29T06:32:17.344Z,58.92
2023-03-29T06:33:20.277Z,58.20
2023-03-29T06:34:23.756Z,57.86
2023-03-29T06:35:26.586Z,56.22
2023-03-29T06:36:29.805Z,55.55
2023-03-29T06:37:33.760Z,57.49
2023-03-29T06:38:36.622Z,57.71
2023-03-29T06:39:39.512Z,57.68
2023-03-29T06:40:44.369Z,57.53
2023-03-29T06:41:47.388Z,57.79
2023-03-29T06:42:50.261Z,58.12
2023-03-29T06:43:53.253Z,57.99
2023-03-29T06:44:56.197Z,57.35
2023-03-29T06:45:59.942Z,56.97
2023-03-29T06:47:03.045Z,56.34
2023-03-29T06:48:07.208Z,56.02
2023-03-29T06:49:10.084Z,56.12
2023-03-29T06:50:12.956Z,55.54
2023-03-29T06:51:15.784Z,55.44
2023-03-29T06:52:18.600Z,54.93
2023-03-29T06:53:23.310Z,55.53
2023-03-29T06:54:26.938Z,56.57
2023-03-29T06:55:30.071Z,56.13
2023-03-29T06:56:33.666Z,55.96
2023-03-29T06:57:36.527Z,55.14
2023-03-29T06:58:39.522Z,55.36
2023-03-29T06:59:42.652Z,55.81
2023-03-29T07:00:45.832Z,56.58
2023-03-29T07:01:49.049Z,56.06
2023-03-29T07:02:52.276Z,56.37
2023-03-29T07:03:56.068Z,56.33
2023-03-29T07:04:59.037Z,55.55
2023-03-29T07:06:05.257Z,55.29
2023-03-29T07:07:13.240Z,55.12
2023-03-29T07:08:17.612Z,55.47
2023-03-29T07:09:21.992Z,55.19
2023-03-29T07:10:33.707Z,55.49
2023-03-29T07:11:37.095Z,55.31
2023-03-29T07:12:39.993Z,54.58
2023-03-29T07:13:43.841Z,54.37
2023-03-29T07:14:46.873Z,54.80
2023-03-29T07:15:49.694Z,54.71
2023-03-29T07:16:53.572Z,54.38
2023-03-29T07:17:57.195Z,54.05
2023-03-29T07:19:00.134Z,53.70
2023-03-29T07:20:03.443Z,53.78
2023-03-29T07:21:07.392Z,54.01
2023-03-29T07:22:11.324Z,54.50
2023-03-29T07:23:14.219Z,54.34
2023-03-29T07:24:17.127Z,53.53
2023-03-29T07:25:22.695Z,53.50
2023-03-29T07:26:29.002Z,53.46
2023-03-29T07:27:32.944Z,53.57
2023-03-29T07:28:36.801Z,53.49
2023-03-29T07:29:39.982Z,53.03
2023-03-29T07:30:42.874Z,52.52
2023-03-29T07:31:47.581Z,52.63
2023-03-29T07:32:52.480Z,52.62
2023-03-29T07:33:55.614Z,52.44
2023-03-29T07:34:59.577Z,52.28
2023-03-29T07:36:03.157Z,52.41
2023-03-29T07:37:07.864Z,52.10
2023-03-29T07:38:11.002Z,51.66
2023-03-29T07:39:16.944Z,51.35
2023-03-29T07:40:24.685Z,51.32
2023-03-29T07:41:27.736Z,50.69
2023-03-29T07:42:30.667Z,50.24
2023-03-29T07:43:35.578Z,50.90
2023-03-29T07:44:38.689Z,51.88
2023-03-29T07:45:45.941Z,50.65
2023-03-29T07:46:48.886Z,50.06
2023-03-29T07:47:57.499Z,50.57
2023-03-29T07:49:00.553Z,50.72
2023-03-29T07:50:05.260Z,50.77
2023-03-29T07:51:08.739Z,51.13
2023-03-29T07:52:11.624Z,51.01
2023-03-29T07:53:14.493Z,50.48
2023-03-29T07:54:17.471Z,50.10
2023-03-29T07:55:20.927Z,49.16
2023-03-29T07:56:23.720Z,49.18
2023-03-29T07:57:27.917Z,48.72
2023-03-29T07:58:31.078Z,48.59
2023-03-29T07:59:34.047Z,48.10
2023-03-29T08:00:36.970Z,47.74
2023-03-29T08:01:42.162Z,46.61
2023-03-29T08:02:46.796Z,46.36
2023-03-29T08:03:49.854Z,45.94
2023-03-29T08:04:55.304Z,46.18
2023-03-29T08:05:58.256Z,47.12
2023-03-29T08:07:01.158Z,46.67
2023-03-29T08:08:04.148Z,46.77
2023-03-29T08:09:07.538Z,47.19
2023-03-29T08:10:16.557Z,45.53
2023-03-29T08:11:20.032Z,46.36
2023-03-29T08:12:24.966Z,46.24
2023-03-29T08:13:28.278Z,46.22
2023-03-29T08:14:31.429Z,45.65
2023-03-29T08:15:36.186Z,45.40
2023-03-29T08:16:39.154Z,46.36
2023-03-29T08:17:43.164Z,46.11
2023-03-29T08:18:46.200Z,46.54
2023-03-29T08:19:50.951Z,43.80
2023-03-29T08:20:54.360Z,44.93
2023-03-29T08:21:57.255Z,44.92
2023-03-29T08:23:00.162Z,44.18
2023-03-29T08:24:03.454Z,43.25
2023-03-29T08:25:08.605Z,43.53
2023-03-29T08:26:11.585Z,43.26
2023-03-29T08:27:14.542Z,44.07
2023-03-29T08:28:17.382Z,42.63
2023-03-29T08:29:20.204Z,42.87
2023-03-29T08:30:25.003Z,43.44
2023-03-29T08:31:28.453Z,42.15
2023-03-29T08:32:31.366Z,40.52
2023-03-29T08:33:34.356Z,40.99
2023-03-29T08:34:37.499Z,41.57
2023-03-29T08:35:40.447Z,42.63
2023-03-29T08:36:43.665Z,42.50
2023-03-29T08:37:47.371Z,42.01
2023-03-29T08:38:51.873Z,40.44
2023-03-29T08:39:54.928Z,41.32
2023-03-29T08:40:58.139Z,40.45
2023-03-29T08:42:10.152Z,38.97
2023-03-29T08:43:21.219Z,39.78
2023-03-29T08:44:39.110Z,40.73
2023-03-29T08:46:01.254Z,40.81
2023-03-29T08:47:09.682Z,41.21
2023-03-29T08:48:18.278Z,40.72
2023-03-29T08:49:22.290Z,40.61
2023-03-29T08:50:33.764Z,40.59
2023-03-29T08:51:49.001Z,40.90
2023-03-29T08:52:56.303Z,38.58
2023-03-29T08:54:28.335Z,39.76
2023-03-29T08:55:41.775Z,37.61
2023-03-29T08:56:49.025Z,38.06
2023-03-29T08:57:53.194Z,39.50
2023-03-29T08:58:58.531Z,39.47
2023-03-29T09:00:05.796Z,39.07
2023-03-29T09:01:10.734Z,37.99
2023-03-29T09:02:20.979Z,38.67
2023-03-29T09:03:35.852Z,38.32
2023-03-29T09:04:41.744Z,38.72
2023-03-29T09:05:50.340Z,38.36
2023-03-29T09:06:53.576Z,37.99
2023-03-29T09:07:56.489Z,38.48
2023-03-29T09:08:59.652Z,37.68
2023-03-29T09:11:52.073Z,38.14
2023-03-29T09:13:13.027Z,38.83
2023-03-29T09:14:33.812Z,39.07
2023-03-29T09:15:50.571Z,38.76
2023-03-29T09:17:08.660Z,38.07
2023-03-29T09:18:31.573Z,37.50
2023-03-29T09:20:02.135Z,37.83
2023-03-29T09:21:27.614Z,37.73
2023-03-29T09:22:45.634Z,36.59
2023-03-29T09:23:52.568Z,37.42
2023-03-29T09:24:55.692Z,38.85
2023-03-29T09:26:12.829Z,38.18
2023-03-29T09:27:23.176Z,36.86
2023-03-29T09:28:28.944Z,36.75
2023-03-29T09:29:57.430Z,38.34
2023-03-29T09:31:07.213Z,37.52
2023-03-29T09:32:22.832Z,37.45
2023-03-29T09:33:28.854Z,37.01
2023-03-29T09:35:04.715Z,39.21
2023-03-29T09:36:22.559Z,39.37
2023-03-29T09:37:35.593Z,38.27
2023-03-29T09:38:43.743Z,36.72
2023-03-29T09:39:47.145Z,36.78
2023-03-29T09:40:59.171Z,36.40
2023-03-29T09:42:10.508Z,36.44
2023-03-29T09:43:19.688Z,36.30
2023-03-29T09:44:31.188Z,35.95
2023-03-29T09:45:38.009Z,35.45
2023-03-29T09:46:48.410Z,37.34
2023-03-29T09:47:59.422Z,37.06
2023-03-29T09:49:06.201Z,35.37
2023-03-29T09:50:30.848Z,37.20
2023-03-29T09:51:35.827Z,36.28
2023-03-29T09:52:39.923Z,36.87
2023-03-29T09:53:42.795Z,36.38
2023-03-29T09:54:45.758Z,36.09
2023-03-29T09:55:51.308Z,34.72
2023-03-29T09:56:54.696Z,35.06
2023-03-29T09:58:02.151Z,35.20
2023-03-29T09:59:05.619Z,35.69
2023-03-29T10:00:10.837Z,35.81
2023-03-29T10:01:17.141Z,34.96
2023-03-29T10:02:22.538Z,34.91
2023-03-29T10:03:28.848Z,34.98
2023-03-29T10:04:31.976Z,34.98
2023-03-29T10:05:41.292Z,35.06
2023-03-29T10:06:50.780Z,34.76
2023-03-29T10:07:56.814Z,35.31
2023-03-29T10:09:00.616Z,35.53
2023-03-29T10:10:03.566Z,34.46
2023-03-29T10:11:34.315Z,34.61
2023-03-29T10:12:37.973Z,34.68
2023-03-29T10:13:48.605Z,33.98
2023-03-29T10:14:55.304Z,34.92
2023-03-29T10:16:10.441Z,32.76
2023-03-29T10:17:25.344Z,33.04
2023-03-29T10:18:28.935Z,33.58
2023-03-29T10:19:36.241Z,34.83
2023-03-29T10:20:41.258Z,35.68
2023-03-29T10:21:44.131Z,38.00
2023-03-29T10:22:50.740Z,36.54
2023-03-29T10:24:00.188Z,35.51
2023-03-29T10:25:03.457Z,34.59
2023-03-29T10:26:11.640Z,35.88
2023-03-29T10:27:14.767Z,36.76
2023-03-29T10:28:19.959Z,36.14
2023-03-29T10:29:25.212Z,35.24
2023-03-29T10:30:28.457Z,35.33
2023-03-29T10:31:37.945Z,36.66
2023-03-29T10:32:43.519Z,34.92
2023-03-29T10:33:53.946Z,35.45
2023-03-29T10:35:00.540Z,34.71
2023-03-29T10:36:08.127Z,35.93
2023-03-29T10:37:13.772Z,32.68
2023-03-29T10:38:22.266Z,35.05
2023-03-29T10:39:28.960Z,35.96
2023-03-29T10:40:34.654Z,34.25
2023-03-29T10:41:37.803Z,35.04
2023-03-29T10:42:48.444Z,34.65
2023-03-29T10:43:52.978Z,33.06
2023-03-29T10:44:58.262Z,34.27
2023-03-29T10:46:21.269Z,33.15
2023-03-29T10:47:24.949Z,32.38
2023-03-29T10:48:32.428Z,31.70
2023-03-29T10:49:42.455Z,31.35
2023-03-29T10:50:50.707Z,32.80
2023-03-29T10:51:53.863Z,34.18
2023-03-29T10:52:56.914Z,33.79
2023-03-29T10:54:00.977Z,34.55
2023-03-29T10:55:03.911Z,34.93
2023-03-29T10:56:29.203Z,34.88
2023-03-29T10:57:44.610Z,34.06
2023-03-29T10:59:24.753Z,33.51
2023-03-29T11:00:42.917Z,35.01
2023-03-29T11:02:02.240Z,37.12
2023-03-29T11:03:41.744Z,36.34
2023-03-29T11:05:10.672Z,35.45
2023-03-29T11:06:47.457Z,35.15
2023-03-29T11:08:18.356Z,33.70
2023-03-29T11:09:33.542Z,35.57
2023-03-29T11:10:48.194Z,35.99
2023-03-29T11:12:18.113Z,34.97
2023-03-29T11:13:48.822Z,35.35
2023-03-29T11:15:10.346Z,35.49
2023-03-29T11:16:33.212Z,36.25
2023-03-29T11:17:52.278Z,36.52
2023-03-29T11:19:08.051Z,35.71
2023-03-29T11:20:32.492Z,35.72
2023-03-29T11:21:47.471Z,35.51
2023-03-29T11:23:24.751Z,36.20
2023-03-29T11:24:36.905Z,36.07
2023-03-29T11:26:05.676Z,35.67
2023-03-29T11:27:08.511Z,35.82
2023-03-29T11:28:40.454Z,34.77
2023-03-29T11:29:47.868Z,33.56
2023-03-29T11:31:18.351Z,34.55
2023-03-29T11:32:42.466Z,35.26
2023-03-29T11:33:51.782Z,34.34
2023-03-29T11:35:15.629Z,34.48
2023-03-29T11:36:25.335Z,35.10
2023-03-29T11:37:43.619Z,35.15
2023-03-29T11:38:49.314Z,36.23
2023-03-29T11:40:08.374Z,35.95
2023-03-29T11:41:19.981Z,36.89
2023-03-29T11:42:30.680Z,36.65
2023-03-29T11:43:42.798Z,34.86
2023-03-29T11:44:48.417Z,34.24
2023-03-29T11:45:59.903Z,34.29
2023-03-29T11:47:11.051Z,35.37
2023-03-29T11:48:29.095Z,36.20
2023-03-29T11:49:44.362Z,36.24
2023-03-29T11:51:34.272Z,37.56
2023-03-29T11:52:42.280Z,36.80
2023-03-29T11:53:58.252Z,37.80
2023-03-29T11:55:11.306Z,36.98
2023-03-29T11:56:26.054Z,38.05
2023-03-29T11:57:52.610Z,37.83
2023-03-29T11:59:02.628Z,37.93
2023-03-29T12:00:17.132Z,38.00
2023-03-29T12:01:32.800Z,35.77
2023-03-29T12:03:03.574Z,38.22
2023-03-29T12:04:19.328Z,37.75
2023-03-29T12:05:36.024Z,38.81
2023-03-29T12:06:59.169Z,37.92
2023-03-29T12:08:06.527Z,35.45
2023-03-29T12:09:21.183Z,35.22
2023-03-29T12:10:30.379Z,36.28
2023-03-29T12:11:42.004Z,37.61
2023-03-29T12:13:07.176Z,35.74
2023-03-29T12:14:12.982Z,36.35
2023-03-29T12:15:22.853Z,37.03
2023-03-29T12:16:45.141Z,37.20
2023-03-29T12:18:03.444Z,38.29
2023-03-29T12:19:20.475Z,37.32
2023-03-29T12:20:29.124Z,36.74
2023-03-29T12:21:33.748Z,38.65
2023-03-29T12:22:39.001Z,38.21
2023-03-29T12:23:44.603Z,38.83
2023-03-29T12:24:52.478Z,37.70
2023-03-29T12:26:07.258Z,38.22
2023-03-29T12:27:21.589Z,37.82
2023-03-29T12:28:49.467Z,37.51
2023-03-29T12:30:10.818Z,36.54
2023-03-29T12:31:36.148Z,36.28
2023-03-29T12:32:54.206Z,36.47
2023-03-29T12:34:18.623Z,37.41
2023-03-29T12:35:30.705Z,38.06
2023-03-29T12:36:47.049Z,38.12
2023-03-29T12:38:05.091Z,37.33
2023-03-29T12:39:15.226Z,37.45
2023-03-29T12:40:19.458Z,37.95
2023-03-29T12:41:24.769Z,37.07
2023-03-29T12:42:27.680Z,37.48
2023-03-29T12:43:38.845Z,39.07
2023-03-29T12:44:58.809Z,39.76
2023-03-29T12:46:27.511Z,38.86
2023-03-29T12:47:40.987Z,38.19
2023-03-29T12:48:47.071Z,38.82
2023-03-29T12:49:55.695Z,38.83
2023-03-29T12:51:03.938Z,39.08
2023-03-29T12:52:25.812Z,38.49
2023-03-29T12:53:35.448Z,37.20
2023-03-29T12:54:38.513Z,38.39
2023-03-29T12:55:44.781Z,38.24
2023-03-29T12:56:53.405Z,37.60
2023-03-29T12:58:12.126Z,38.16
2023-03-29T12:59:25.834Z,38.22
2023-03-29T13:00:35.256Z,39.25
2023-03-29T13:01:42.518Z,38.05
2023-03-29T13:02:46.979Z,38.83
2023-03-29T13:04:11.947Z,39.45
2023-03-29T13:05:36.403Z,37.81
2023-03-29T13:06:48.606Z,37.37
2023-03-29T13:07:53.079Z,37.54
2023-03-29T13:09:04.907Z,38.17
2023-03-29T13:10:28.637Z,38.37
2023-03-29T13:11:42.190Z,38.12
2023-03-29T13:12:47.146Z,40.23
2023-03-29T13:13:51.447Z,40.37
2023-03-29T13:15:05.254Z,39.44
2023-03-29T13:16:34.296Z,38.53
2023-03-29T13:18:01.303Z,38.20
2023-03-29T13:19:34.636Z,38.74
2023-03-29T13:20:58.748Z,39.39
2023-03-29T13:22:24.861Z,39.73
2023-03-29T13:23:30.504Z,38.30
2023-03-29T13:24:43.546Z,39.52
2023-03-29T13:25:53.441Z,38.64
2023-03-29T13:27:08.492Z,41.96
2023-03-29T13:28:26.678Z,40.43
2023-03-29T13:29:38.690Z,39.13
2023-03-29T13:30:45.404Z,38.80
2023-03-29T13:32:12.582Z,38.89
2023-03-29T13:33:37.063Z,39.57
2023-03-29T13:34:51.163Z,37.94
2023-03-29T13:36:15.418Z,37.76
2023-03-29T13:37:35.679Z,39.78
2023-03-29T13:38:49.943Z,38.94
2023-03-29T13:39:55.762Z,40.31
2023-03-29T13:41:07.357Z,40.10
2023-03-29T13:42:40.344Z,39.90
2023-03-29T13:43:46.001Z,38.75
2023-03-29T13:44:52.839Z,38.43
2023-03-29T13:45:58.482Z,37.66
2023-03-29T13:47:28.180Z,37.64
2023-03-29T13:48:36.815Z,37.97
2023-03-29T13:49:43.749Z,38.05
2023-03-29T13:50:58.372Z,38.10
2023-03-29T13:52:17.507Z,36.74
2023-03-29T13:53:38.648Z,36.82
2023-03-29T13:54:51.985Z,38.32
2023-03-29T13:55:56.203Z,38.21
2023-03-29T13:57:19.848Z,38.83
2023-03-29T13:59:11.117Z,38.47
2023-03-29T14:00:21.567Z,37.35
2023-03-29T14:01:32.627Z,36.62
2023-03-29T14:02:46.593Z,38.05
2023-03-29T14:03:55.449Z,38.45
2023-03-29T14:05:01.229Z,36.87
2023-03-29T14:06:05.963Z,36.65
2023-03-29T14:07:11.863Z,37.60
2023-03-29T14:08:32.878Z,37.53
2023-03-29T14:09:45.265Z,37.70
2023-03-29T14:10:49.524Z,37.81
2023-03-29T14:11:52.912Z,37.38
2023-03-29T14:12:58.114Z,37.89
2023-03-29T14:14:04.142Z,37.81
2023-03-29T14:15:08.270Z,37.75
2023-03-29T14:16:13.279Z,38.16
2023-03-29T14:17:21.638Z,38.04
2023-03-29T14:18:27.121Z,38.32
2023-03-29T14:19:34.276Z,37.91
2023-03-29T14:20:38.134Z,36.90
2023-03-29T14:21:42.756Z,37.27
2023-03-29T14:22:46.806Z,37.21
2023-03-29T14:23:57.486Z,37.90
2023-03-29T14:25:07.029Z,37.40
2023-03-29T14:26:14.461Z,37.69
2023-03-29T14:27:18.082Z,37.93
2023-03-29T14:28:25.113Z,38.02
2023-03-29T14:29:35.409Z,38.09
2023-03-29T14:30:38.248Z,38.56
2023-03-29T14:31:42.980Z,38.13
2023-03-29T14:32:45.950Z,37.41
2023-03-29T14:34:03.823Z,38.41
2023-03-29T14:35:07.205Z,39.12
2023-03-29T14:36:17.867Z,38.78
2023-03-29T14:37:27.794Z,38.56